Time;durP1;ratioP1;P1;durP2;ratioP2;P2;SDS_P1;SDS_P2;PMS_P1;PMS_P2;Temp;Humidity;BMP_temperature;BMP_pressure;BME280_temperature;BME280_humidity;BME280_pressure;Samples;Min_cycle;Max_cycle;Signal;HPM_P1;HPM_P2
2021/08/04 00:01:37;;;;;;;10.95;4.38;;;;;;;14.94;77.34;101087.09;5011653;28;20025;-76
2021/08/04 00:04:02;;;;;;;11.85;5.53;;;;;;;14.91;77.35;101082.19;5011615;28;20074;-77
2021/08/04 00:06:28;;;;;;;11.25;5.78;;;;;;;14.89;77.45;101084.19;4994778;28;20140;-75
2021/08/04 00:08:54;;;;;;;6.82;4.78;;;;;;;14.87;77.30;101086.16;4991633;28;20361;-75
2021/08/04 00:11:20;;;;;;;7.90;5.03;;;;;;;14.85;77.29;101085.53;5014780;28;20482;-75
2021/08/04 00:13:46;;;;;;;8.32;5.30;;;;;;;14.83;77.21;101084.91;5006146;28;20033;-75
2021/08/04 00:16:11;;;;;;;7.88;5.28;;;;;;;14.82;76.77;101090.28;4980067;28;20431;-75
2021/08/04 00:18:37;;;;;;;7.90;5.10;;;;;;;14.80;76.69;101085.25;4993356;28;20038;-75
2021/08/04 00:21:02;;;;;;;10.65;5.82;;;;;;;14.77;76.58;101096.06;4992553;28;20088;-75
2021/08/04 00:23:28;;;;;;;7.80;5.30;;;;;;;14.73;76.54;101092.97;4977893;28;20030;-75
2021/08/04 00:25:53;;;;;;;8.65;5.78;;;;;;;14.71;76.43;101088.91;5010518;28;20029;-76
2021/08/04 00:28:18;;;;;;;7.50;5.78;;;;;;;14.67;76.42;101087.63;5000620;28;20069;-75
2021/08/04 00:30:44;;;;;;;9.90;6.20;;;;;;;14.64;76.56;101085.41;4998860;28;20027;-75
2021/08/04 00:33:09;;;;;;;7.03;4.85;;;;;;;14.59;76.34;101084.09;5012812;28;20026;-75
2021/08/04 00:35:35;;;;;;;8.30;5.57;;;;;;;14.56;76.43;101076.63;5007336;28;20357;-75
2021/08/04 00:38:07;;;;;;;7.18;5.55;;;;;;;14.54;76.45;101080.38;4973076;28;20566;-75
2021/08/04 00:40:33;;;;;;;8.88;6.57;;;;;;;14.50;76.23;101076.50;4988900;28;20565;-75
2021/08/04 00:42:59;;;;;;;8.70;5.55;;;;;;;14.47;76.32;101071.63;4972708;28;20035;-76
2021/08/04 00:45:25;;;;;;;13.48;6.65;;;;;;;14.44;76.20;101074.59;4977561;28;20083;-75
2021/08/04 00:47:51;;;;;;;8.75;5.63;;;;;;;14.40;76.33;101068.91;4980767;28;20471;-75
2021/08/04 00:50:17;;;;;;;8.85;5.97;;;;;;;14.37;76.32;101074.47;4996729;28;20472;-76
2021/08/04 00:52:43;;;;;;;13.65;6.32;;;;;;;14.32;76.39;101069.78;4980237;28;20025;-76
2021/08/04 00:55:10;;;;;;;10.15;5.95;;;;;;;14.30;76.56;101081.38;4975022;28;20054;-76
2021/08/04 00:57:35;;;;;;;8.43;5.75;;;;;;;14.28;76.48;101080.72;4979113;28;20049;-76
2021/08/04 01:00:03;;;;;;;8.40;6.03;;;;;;;14.24;76.40;101076.84;4994108;28;20030;-76
2021/08/04 01:02:38;;;;;;;9.90;6.25;;;;;;;14.19;76.56;101078.16;4993586;28;20034;-77
2021/08/04 01:05:13;;;;;;;9.35;5.63;;;;;;;14.16;76.54;101081.13;4982053;28;20077;-76
2021/08/04 01:08:12;;;;;;;10.18;6.18;;;;;;;14.12;76.68;101082.44;5000141;28;20029;-76
2021/08/04 01:10:46;;;;;;;9.73;5.40;;;;;;;14.09;76.70;101079.38;4991342;28;20049;-76
2021/08/04 01:13:21;;;;;;;8.65;6.13;;;;;;;14.05;76.67;101080.69;4987134;28;20039;-76
2021/08/04 01:15:53;;;;;;;8.27;5.90;;;;;;;13.98;77.00;101083.19;4985065;28;20034;-76
2021/08/04 01:18:26;;;;;;;8.00;6.22;;;;;;;13.92;77.03;101091.69;4985041;28;20026;-75
2021/08/04 01:20:52;;;;;;;8.80;6.30;;;;;;;13.90;77.10;101085.81;5001454;28;20033;-75
2021/08/04 01:23:30;;;;;;;8.27;5.97;;;;;;;13.88;77.08;101082.59;5005436;28;20487;-75
2021/08/04 01:25:59;;;;;;;7.95;5.78;;;;;;;13.80;77.31;101086.84;4976516;28;20069;-75
2021/08/04 01:28:39;;;;;;;12.30;6.50;;;;;;;13.75;77.62;101091.78;4978795;28;20077;-75
2021/08/04 01:31:09;;;;;;;9.95;7.43;;;;;;;13.67;77.66;101088.38;4970790;28;20056;-75
2021/08/04 01:33:40;;;;;;;10.55;6.68;;;;;;;13.58;77.58;101096.25;4993314;28;20034;-75
2021/08/04 01:36:10;;;;;;;13.75;5.82;;;;;;;13.50;77.87;101096.25;5004445;28;20379;-75
2021/08/04 01:38:37;;;;;;;9.35;5.28;;;;;;;13.44;78.27;101089.91;4992338;28;20445;-76
2021/08/04 01:41:05;;;;;;;8.43;6.13;;;;;;;13.45;78.28;101090.75;4970759;28;20403;-76
2021/08/04 01:43:32;;;;;;;9.05;6.65;;;;;;;13.47;78.15;101083.56;5006483;28;20479;-75
2021/08/04 01:45:59;;;;;;;8.13;5.85;;;;;;;13.47;78.02;101086.19;4991043;28;20032;-75
2021/08/04 01:48:25;;;;;;;9.80;7.10;;;;;;;13.48;77.87;101079.97;4993039;28;20466;-75
2021/08/04 01:50:53;;;;;;;8.50;5.57;;;;;;;13.47;77.74;101077.53;4988431;28;20113;-75
2021/08/04 01:53:21;;;;;;;9.05;6.32;;;;;;;13.43;77.81;101087.50;4987122;28;20124;-75
2021/08/04 01:55:47;;;;;;;10.52;6.47;;;;;;;13.40;78.23;101082.63;4990514;28;20049;-75
2021/08/04 01:58:12;;;;;;;9.68;6.05;;;;;;;13.37;78.20;101081.16;4966288;28;20519;-77
2021/08/04 02:00:38;;;;;;;10.90;6.40;;;;;;;13.35;77.99;101077.09;4995189;28;20026;-76
2021/08/04 02:03:04;;;;;;;9.55;6.07;;;;;;;13.35;78.03;101074.50;5004525;28;20040;-76
2021/08/04 02:05:29;;;;;;;10.15;6.93;;;;;;;13.34;77.79;101073.69;4984878;28;20185;-76
2021/08/04 02:08:25;;;;;;;15.50;6.70;;;;;;;13.32;77.54;101069.63;5003471;28;20038;-76
2021/08/04 02:11:14;;;;;;;9.25;6.85;;;;;;;13.29;77.62;101075.94;4972695;28;20033;-75
2021/08/04 02:13:48;;;;;;;10.18;7.00;;;;;;;13.29;77.46;101078.53;4963125;28;20026;-75
2021/08/04 02:16:43;;;;;;;10.23;6.85;;;;;;;13.25;77.61;101072.84;5005380;28;20038;-75
2021/08/04 02:19:36;;;;;;;10.02;6.90;;;;;;;13.23;77.84;101071.41;4996584;28;20041;-75
2021/08/04 02:22:05;;;;;;;7.70;6.25;;;;;;;13.16;77.98;101067.84;5000591;28;20049;-75
2021/08/04 02:24:41;;;;;;;10.43;6.55;;;;;;;13.13;78.29;101068.16;4983722;28;20037;-75
2021/08/04 02:27:07;;;;;;;9.95;7.22;;;;;;;13.11;78.20;101070.94;4972675;28;20033;-75
2021/08/04 02:29:36;;;;;;;10.32;6.85;;;;;;;13.09;78.15;101067.69;4991603;28;20034;-75
2021/08/04 02:32:03;;;;;;;12.00;7.88;;;;;;;13.04;78.09;101067.38;5002722;28;20049;-75
2021/08/04 02:34:28;;;;;;;10.93;7.68;;;;;;;12.97;78.48;101069.81;4990141;28;20075;-75
2021/08/04 02:36:54;;;;;;;10.02;7.15;;;;;;;12.97;78.57;101062.00;4997472;28;20034;-75
2021/08/04 02:39:20;;;;;;;10.63;7.53;;;;;;;12.93;78.64;101062.50;4974955;28;20088;-75
2021/08/04 02:41:47;;;;;;;9.20;6.43;;;;;;;12.91;78.55;101056.66;4984699;28;20594;-75
2021/08/04 02:44:15;;;;;;;10.13;7.57;;;;;;;12.88;78.79;101051.78;4979453;28;20146;-75
2021/08/04 02:46:43;;;;;;;13.40;6.88;;;;;;;12.85;78.64;101047.72;4983966;28;20072;-74
2021/08/04 02:49:09;;;;;;;10.45;7.43;;;;;;;12.79;78.70;101045.75;4996910;28;20030;-74
2021/08/04 02:51:35;;;;;;;9.60;6.75;;;;;;;12.75;78.78;101053.09;4973111;28;20295;-76
2021/08/04 02:54:01;;;;;;;11.75;7.97;;;;;;;12.73;78.92;101054.22;4999093;28;20133;-75
2021/08/04 02:56:27;;;;;;;9.98;7.63;;;;;;;12.71;78.83;101056.19;4994433;28;20029;-75
2021/08/04 02:58:53;;;;;;;9.00;7.25;;;;;;;12.68;78.97;101054.72;4988705;28;20029;-75
2021/08/04 03:01:19;;;;;;;11.55;8.23;;;;;;;12.66;79.04;101060.09;4988954;28;20038;-75
2021/08/04 03:03:44;;;;;;;11.07;9.07;;;;;;;12.65;79.01;101066.25;4998999;28;20049;-75
2021/08/04 03:06:10;;;;;;;11.85;8.43;;;;;;;12.65;79.07;101070.66;4994223;28;20140;-76
2021/08/04 03:08:37;;;;;;;11.48;8.48;;;;;;;12.64;79.13;101063.84;4995035;28;20038;-75
2021/08/04 03:11:03;;;;;;;12.52;8.35;;;;;;;12.61;78.90;101070.16;4999168;28;20553;-75
2021/08/04 03:13:29;;;;;;;14.90;8.52;;;;;;;12.61;79.19;101070.16;4977017;28;20026;-75
2021/08/04 03:15:55;;;;;;;10.75;8.10;;;;;;;12.57;79.12;101071.47;4993209;28;20033;-75
2021/08/04 03:18:21;;;;;;;12.85;8.43;;;;;;;12.57;79.22;101075.88;4980384;28;20393;-75
2021/08/04 03:20:46;;;;;;;12.45;7.80;;;;;;;12.53;79.20;101064.97;5010661;28;20029;-75
2021/08/04 03:23:12;;;;;;;12.30;8.27;;;;;;;12.51;79.02;101072.13;4995644;28;20036;-75
2021/08/04 03:25:37;;;;;;;12.32;7.47;;;;;;;12.43;79.21;101066.91;4993199;28;20026;-75
2021/08/04 03:28:03;;;;;;;12.20;8.77;;;;;;;12.29;79.43;101067.56;4991789;28;20037;-75
2021/08/04 03:30:28;;;;;;;10.73;8.25;;;;;;;12.22;79.54;101072.56;4997394;28;20030;-76
2021/08/04 03:32:54;;;;;;;12.65;8.90;;;;;;;12.16;79.58;101078.41;4994130;28;20045;-75
2021/08/04 03:35:19;;;;;;;13.23;8.07;;;;;;;12.15;79.76;101077.59;4981982;28;20097;-75
2021/08/04 03:37:45;;;;;;;18.33;8.85;;;;;;;12.17;79.58;101065.25;5006332;28;20743;-75
2021/08/04 03:40:11;;;;;;;13.63;8.25;;;;;;;12.20;79.52;101074.50;5002245;28;20065;-75
2021/08/04 03:42:37;;;;;;;12.07;8.23;;;;;;;12.22;79.45;101073.41;4996922;28;20581;-75
2021/08/04 03:45:05;;;;;;;13.73;8.75;;;;;;;12.22;79.36;101078.59;5000172;28;20034;-75
2021/08/04 03:47:30;;;;;;;13.25;9.55;;;;;;;12.24;79.12;101081.84;5006631;28;20484;-75
2021/08/04 03:49:56;;;;;;;16.50;9.57;;;;;;;12.24;79.20;101076.66;5003662;28;20073;-75
2021/08/04 03:52:22;;;;;;;14.45;10.45;;;;;;;12.24;79.06;101079.25;4988519;28;20036;-75
2021/08/04 03:54:48;;;;;;;13.15;9.10;;;;;;;12.25;79.06;101080.06;4998458;28;20045;-75
2021/08/04 03:57:14;;;;;;;12.07;9.50;;;;;;;12.25;79.27;101085.25;4997744;28;20095;-74
2021/08/04 03:59:39;;;;;;;12.90;9.23;;;;;;;12.24;79.34;101078.41;4980244;28;20483;-75
2021/08/04 04:02:05;;;;;;;14.48;9.73;;;;;;;12.24;79.20;101078.41;5000089;28;20049;-75
2021/08/04 04:04:31;;;;;;;14.93;9.82;;;;;;;12.21;79.16;101082.16;4988299;28;20400;-75
2021/08/04 04:06:56;;;;;;;15.32;9.43;;;;;;;12.19;79.48;101084.13;5002868;28;20034;-74
2021/08/04 04:09:22;;;;;;;12.05;8.68;;;;;;;12.19;79.62;101085.91;5007167;28;20411;-75
2021/08/04 04:11:47;;;;;;;12.75;9.05;;;;;;;12.18;79.37;101086.88;4990730;28;20415;-75
2021/08/04 04:14:13;;;;;;;14.30;9.48;;;;;;;12.17;79.29;101082.66;4989237;28;20034;-75
2021/08/04 04:16:38;;;;;;;13.48;10.00;;;;;;;12.17;79.50;101090.44;4991929;28;20022;-74
2021/08/04 04:19:04;;;;;;;13.32;9.50;;;;;;;12.15;79.38;101087.16;4992765;28;20033;-74
2021/08/04 04:21:31;;;;;;;15.15;10.25;;;;;;;12.16;79.36;101094.00;4993093;28;20545;-74
2021/08/04 04:23:57;;;;;;;14.88;10.63;;;;;;;12.16;79.27;101092.22;5004632;28;20401;-74
2021/08/04 04:26:22;;;;;;;16.08;10.30;;;;;;;12.16;79.10;101097.41;5003969;28;20048;-74
2021/08/04 04:28:48;;;;;;;12.25;9.70;;;;;;;12.16;79.14;101102.63;4991505;28;20033;-74
2021/08/04 04:31:13;;;;;;;13.15;9.07;;;;;;;12.17;79.09;101101.66;4990942;28;20037;-74
2021/08/04 04:33:38;;;;;;;14.27;9.05;;;;;;;12.15;78.99;101100.16;5009125;28;20034;-74
2021/08/04 04:36:04;;;;;;;12.80;9.05;;;;;;;12.15;79.51;101108.81;4987802;28;20036;-74
2021/08/04 04:38:30;;;;;;;14.25;9.57;;;;;;;12.15;79.86;101107.97;4999941;28;20034;-75
2021/08/04 04:40:55;;;;;;;12.43;9.77;;;;;;;12.17;79.77;101108.66;4989039;28;20033;-74
2021/08/04 04:43:21;;;;;;;16.08;10.20;;;;;;;12.16;79.86;101109.59;4977700;28;20463;-74
2021/08/04 04:45:47;;;;;;;22.25;11.05;;;;;;;12.12;80.12;101116.91;4985052;28;20101;-74
2021/08/04 04:48:13;;;;;;;17.23;11.32;;;;;;;12.06;80.07;101117.53;4993859;28;20137;-74
2021/08/04 04:50:39;;;;;;;20.70;12.32;;;;;;;11.98;80.40;101113.13;4999876;28;20101;-74
2021/08/04 04:53:04;;;;;;;16.90;11.60;;;;;;;12.00;80.59;101120.78;4986889;28;20502;-74
2021/08/04 04:55:30;;;;;;;17.75;9.68;;;;;;;12.03;80.64;101115.25;4981348;28;20479;-75
2021/08/04 04:57:55;;;;;;;14.85;10.00;;;;;;;12.11;80.64;101122.25;4999806;28;20034;-74
2021/08/04 05:00:20;;;;;;;14.32;10.32;;;;;;;12.17;80.62;101117.25;5007991;28;20038;-75
2021/08/04 05:02:46;;;;;;;20.60;10.65;;;;;;;12.24;80.66;101120.84;4988076;28;20041;-75
2021/08/04 05:05:12;;;;;;;16.15;10.23;;;;;;;12.27;80.74;101120.50;5001378;28;20038;-74
2021/08/04 05:07:37;;;;;;;14.52;10.30;;;;;;;12.33;80.85;101120.84;4981271;28;20407;-75
2021/08/04 05:10:03;;;;;;;15.65;10.90;;;;;;;12.33;81.51;101118.25;5004881;28;20396;-74
2021/08/04 05:12:29;;;;;;;15.68;11.10;;;;;;;12.38;81.65;101123.81;5003851;28;20021;-75
2021/08/04 05:14:55;;;;;;;17.58;11.98;;;;;;;12.45;81.76;101119.56;4988825;28;20103;-75
2021/08/04 05:17:20;;;;;;;20.73;13.48;;;;;;;12.52;82.10;101122.34;5006814;28;20029;-75
2021/08/04 05:19:45;;;;;;;20.60;11.40;;;;;;;12.59;81.93;101124.16;4983267;28;20057;-75
2021/08/04 05:22:11;;;;;;;18.30;11.82;;;;;;;12.64;81.90;101121.06;4996813;28;20030;-75
2021/08/04 05:24:36;;;;;;;23.30;13.88;;;;;;;12.69;81.81;101118.78;4994735;28;20041;-75
2021/08/04 05:27:02;;;;;;;19.23;12.52;;;;;;;12.74;81.76;101123.50;5007988;28;20034;-75
2021/08/04 05:29:28;;;;;;;17.65;11.82;;;;;;;12.80;81.65;101125.47;4999863;28;20045;-75
2021/08/04 05:31:53;;;;;;;18.75;12.82;;;;;;;12.86;81.38;101122.19;5005911;28;20021;-75
2021/08/04 05:34:19;;;;;;;22.30;14.13;;;;;;;12.89;81.61;101132.28;4970481;28;20065;-75
2021/08/04 05:36:45;;;;;;;19.50;13.50;;;;;;;12.96;81.53;101133.28;5002270;28;20171;-75
2021/08/04 05:39:10;;;;;;;17.52;13.00;;;;;;;13.06;81.39;101130.50;4986263;28;20049;-75
2021/08/04 05:41:36;;;;;;;21.73;14.98;;;;;;;13.11;81.13;101123.03;4990458;28;20526;-75
2021/08/04 05:44:02;;;;;;;27.15;17.77;;;;;;;13.15;81.17;101131.31;4988691;28;20070;-75
2021/08/04 05:46:27;;;;;;;19.40;13.15;;;;;;;13.13;81.46;101128.88;5002203;28;20041;-75
2021/08/04 05:48:53;;;;;;;21.75;15.52;;;;;;;13.15;81.64;101126.09;5004697;28;20450;-75
2021/08/04 05:51:19;;;;;;;25.73;15.38;;;;;;;13.22;81.77;101130.50;5010094;28;20034;-75
2021/08/04 05:53:45;;;;;;;21.00;15.38;;;;;;;13.29;81.90;101120.22;5001522;28;20067;-76
2021/08/04 05:56:11;;;;;;;20.55;14.23;;;;;;;13.41;81.73;101128.50;4993071;28;20037;-76
2021/08/04 05:58:36;;;;;;;22.42;14.80;;;;;;;13.60;81.45;101130.75;5003119;28;20034;-76
2021/08/04 06:01:02;;;;;;;18.40;12.73;;;;;;;13.87;80.64;101139.13;4983350;28;20050;-76
2021/08/04 06:03:28;;;;;;;26.20;16.13;;;;;;;14.12;80.22;101139.81;4996685;28;20036;-76
2021/08/04 06:05:53;;;;;;;19.77;14.77;;;;;;;14.38;79.09;101133.47;4997360;28;20046;-77
2021/08/04 06:08:18;;;;;;;19.35;13.45;;;;;;;14.46;78.81;101136.03;4993657;28;20393;-76
2021/08/04 06:10:44;;;;;;;21.98;12.52;;;;;;;14.59;78.51;101135.50;4997584;28;20045;-76
2021/08/04 06:13:09;;;;;;;21.92;14.88;;;;;;;14.89;77.51;101136.41;4997729;28;20028;-76
2021/08/04 06:15:35;;;;;;;20.05;14.57;;;;;;;15.25;76.24;101138.34;4990431;28;20029;-76
2021/08/04 06:18:00;;;;;;;23.88;14.85;;;;;;;15.51;75.33;101131.91;4996355;28;20037;-76
2021/08/04 06:20:26;;;;;;;23.38;15.32;;;;;;;15.76;74.78;101138.50;4996811;28;20034;-76
2021/08/04 06:22:52;;;;;;;18.92;12.73;;;;;;;16.07;73.68;101140.06;4986669;28;20438;-76
2021/08/04 06:25:17;;;;;;;16.27;11.55;;;;;;;16.30;72.70;101134.69;5002712;28;20042;-76
2021/08/04 06:27:42;;;;;;;15.93;11.18;;;;;;;16.51;72.07;101139.13;4985212;28;20022;-76
2021/08/04 06:30:08;;;;;;;16.13;12.93;;;;;;;16.58;71.50;101135.78;4969941;28;20282;-76
2021/08/04 06:32:34;;;;;;;14.80;11.05;;;;;;;16.46;72.06;101143.28;4994602;28;20080;-76
2021/08/04 06:34:59;;;;;;;17.23;10.18;;;;;;;16.28;72.73;101143.72;4993859;28;20062;-76
2021/08/04 06:37:25;;;;;;;14.82;10.48;;;;;;;16.13;72.84;101149.00;4995051;28;20052;-76
2021/08/04 06:39:50;;;;;;;16.48;11.23;;;;;;;16.04;74.25;101148.28;4985332;28;20479;-76
2021/08/04 06:42:16;;;;;;;14.90;10.77;;;;;;;16.10;73.99;101151.97;4985768;28;20403;-76
2021/08/04 06:44:41;;;;;;;14.35;10.98;;;;;;;16.12;73.23;101148.19;4984756;28;20034;-76
2021/08/04 06:47:07;;;;;;;12.30;9.57;;;;;;;16.09;73.72;101152.97;5000910;28;20033;-76
2021/08/04 06:49:32;;;;;;;10.05;8.00;;;;;;;16.24;73.45;101150.31;4991776;28;20084;-76
2021/08/04 06:51:58;;;;;;;16.33;11.02;;;;;;;16.53;72.30;101152.03;5005957;28;20068;-76
2021/08/04 06:54:25;;;;;;;11.90;8.63;;;;;;;16.80;71.39;101157.50;4994848;28;20068;-75
2021/08/04 06:56:51;;;;;;;23.83;12.35;;;;;;;16.92;69.94;101153.41;4988799;28;20025;-75
2021/08/04 06:59:17;;;;;;;18.92;11.77;;;;;;;16.99;70.34;101154.28;4995798;28;20500;-75
2021/08/04 07:01:45;;;;;;;17.80;10.63;;;;;;;17.09;69.99;101152.13;4993432;28;20315;-76
2021/08/04 07:04:11;;;;;;;19.95;14.38;;;;;;;17.13;70.42;101152.56;4971775;28;20026;-75
2021/08/04 07:06:36;;;;;;;19.23;10.70;;;;;;;17.42;69.48;101153.34;4986037;28;20057;-76
2021/08/04 07:09:02;;;;;;;15.68;10.05;;;;;;;17.83;68.05;101149.94;4974643;28;20777;-76
2021/08/04 07:11:28;;;;;;;16.35;10.48;;;;;;;18.21;67.07;101145.03;4995831;28;20105;-75
2021/08/04 07:13:53;;;;;;;17.00;10.70;;;;;;;18.67;65.93;101148.78;5005178;28;20050;-75
2021/08/04 07:16:19;;;;;;;15.38;10.82;;;;;;;19.03;62.73;101144.97;5001412;28;20060;-75
2021/08/04 07:18:45;;;;;;;14.07;9.43;;;;;;;19.43;62.22;101144.88;4993161;28;20030;-76
2021/08/04 07:21:13;;;;;;;17.60;11.65;;;;;;;19.52;62.39;101137.59;4997396;28;20041;-76
2021/08/04 07:23:40;;;;;;;15.10;10.50;;;;;;;19.95;61.57;101140.47;4985359;28;20692;-75
2021/08/04 07:26:05;;;;;;;12.38;9.10;;;;;;;20.38;60.57;101139.00;4968543;28;20040;-76
2021/08/04 07:28:32;;;;;;;13.93;9.85;;;;;;;20.67;58.23;101131.56;5010962;28;20057;-75
2021/08/04 07:30:58;;;;;;;16.50;8.48;;;;;;;20.80;57.70;101132.25;4987751;28;20522;-76
2021/08/04 07:33:23;;;;;;;12.45;8.50;;;;;;;21.12;57.33;101126.91;5000241;28;20515;-75
2021/08/04 07:35:49;;;;;;;12.32;8.75;;;;;;;21.36;56.79;101133.16;4991471;28;20479;-76
2021/08/04 07:38:14;;;;;;;11.90;8.73;;;;;;;21.71;55.66;101131.75;4987974;28;20037;-75
2021/08/04 07:40:42;;;;;;;15.10;9.57;;;;;;;21.74;55.10;101134.75;5002784;28;20178;-76
2021/08/04 07:43:08;;;;;;;11.45;8.30;;;;;;;22.04;55.24;101130.50;4987495;28;20403;-75
2021/08/04 07:45:34;;;;;;;15.07;9.40;;;;;;;22.21;53.38;101128.88;4982228;28;20033;-75
2021/08/04 07:47:59;;;;;;;17.70;10.43;;;;;;;21.80;54.33;101127.00;5008159;28;20032;-75
2021/08/04 07:50:25;;;;;;;19.40;10.20;;;;;;;21.91;54.84;101126.25;4996776;28;21307;-77
2021/08/04 07:52:50;;;;;;;15.23;8.48;;;;;;;22.29;53.75;101136.50;4992294;28;20513;-76
2021/08/04 07:55:16;;;;;;;13.30;8.35;;;;;;;22.48;51.38;101125.84;5004284;28;20030;-78
2021/08/04 07:57:42;;;;;;;12.18;9.18;;;;;;;22.51;53.70;101120.13;4995983;28;20057;-77
2021/08/04 08:00:08;;;;;;;12.63;8.43;;;;;;;22.70;51.85;101121.63;4992846;28;20061;-77
2021/08/04 08:02:40;;;;;;;12.73;8.30;;;;;;;23.11;50.67;101121.75;4997956;28;20080;-77
2021/08/04 08:05:06;;;;;;;12.38;8.40;;;;;;;23.42;51.53;101115.28;5004239;28;20040;-77
2021/08/04 08:07:32;;;;;;;13.52;8.18;;;;;;;23.55;50.88;101110.78;4998565;28;20029;-76
2021/08/04 08:09:58;;;;;;;13.73;8.27;;;;;;;23.77;50.80;101114.38;5017894;28;20030;-77
2021/08/04 08:12:23;;;;;;;13.90;8.10;;;;;;;24.04;48.85;101113.81;4994006;28;20042;-78
2021/08/04 08:14:48;;;;;;;14.02;8.27;;;;;;;24.12;47.88;101112.63;4989620;28;20487;-77
2021/08/04 08:17:14;;;;;;;11.45;6.78;;;;;;;24.23;46.23;101111.75;4992260;28;20400;-76
2021/08/04 08:19:40;;;;;;;12.57;7.10;;;;;;;23.88;46.39;101112.72;4991179;28;20041;-76
2021/08/04 08:22:05;;;;;;;10.73;6.90;;;;;;;24.13;47.31;101115.03;5008555;28;20045;-76
2021/08/04 08:24:31;;;;;;;15.15;8.57;;;;;;;24.23;47.70;101112.56;4972549;28;20017;-76
2021/08/04 08:26:56;;;;;;;9.98;7.43;;;;;;;24.38;47.53;101113.84;5008930;28;20439;-76
2021/08/04 08:29:22;;;;;;;12.98;8.07;;;;;;;24.27;48.23;101113.66;4992661;28;20022;-77
2021/08/04 08:31:47;;;;;;;17.35;7.90;;;;;;;24.31;46.64;101108.69;4987993;28;20120;-76
2021/08/04 08:34:13;;;;;;;15.20;7.35;;;;;;;24.12;45.44;101102.81;4988416;28;20519;-74
2021/08/04 08:36:39;;;;;;;11.35;6.65;;;;;;;23.79;46.01;101100.91;5010213;28;20037;-76
2021/08/04 08:39:07;;;;;;;10.85;5.82;;;;;;;24.01;46.73;101101.03;4991975;28;20037;-76
2021/08/04 08:41:33;;;;;;;13.00;7.07;;;;;;;24.43;46.34;101101.50;4996698;28;20038;-78
2021/08/04 08:43:58;;;;;;;9.60;6.78;;;;;;;24.73;45.38;101099.56;5001708;28;20029;-76
2021/08/04 08:46:30;;;;;;;13.02;7.53;;;;;;;24.90;45.60;101102.19;4989978;28;20415;-76
2021/08/04 08:48:56;;;;;;;14.90;8.00;;;;;;;24.92;44.37;101100.91;5000680;28;20068;-76
2021/08/04 08:51:22;;;;;;;11.30;7.57;;;;;;;24.91;45.42;101095.84;4988845;28;20029;-78
2021/08/04 08:53:48;;;;;;;13.02;7.22;;;;;;;25.03;44.17;101105.31;4990001;28;20030;-77
2021/08/04 08:56:17;;;;;;;14.07;8.35;;;;;;;25.04;44.34;101098.13;4999889;28;20084;-76
2021/08/04 08:58:47;;;;;;;11.63;6.85;;;;;;;25.27;44.02;101089.16;5018430;28;20105;-78
2021/08/04 09:01:12;;;;;;;12.93;7.75;;;;;;;25.23;43.82;101096.03;4993490;28;20065;-76
2021/08/04 09:03:38;;;;;;;15.40;8.30;;;;;;;25.48;43.95;101089.41;5003684;28;20678;-79
2021/08/04 09:06:05;;;;;;;13.70;7.97;;;;;;;25.40;42.38;101094.09;5013555;28;20041;-76
2021/08/04 09:08:38;;;;;;;15.20;9.43;;;;;;;25.41;43.49;101090.41;5004939;28;20040;-77
2021/08/04 09:11:18;;;;;;;13.57;9.25;;;;;;;25.27;42.43;101098.97;4984890;28;20034;-76
2021/08/04 09:13:46;;;;;;;12.30;8.93;;;;;;;25.37;42.29;101099.91;5002708;28;20041;-77
2021/08/04 09:16:16;;;;;;;13.57;8.07;;;;;;;25.55;44.55;101093.47;5003500;28;20037;-77
2021/08/04 09:18:43;;;;;;;19.27;9.82;;;;;;;25.75;42.46;101084.09;5008893;28;20204;-76
2021/08/04 09:21:10;;;;;;;14.23;9.13;;;;;;;25.86;44.55;101082.34;5008031;28;20072;-77
2021/08/04 09:23:56;;;;;;;14.65;10.07;;;;;;;25.95;42.67;101086.19;4999404;28;20026;-77
2021/08/04 09:26:26;;;;;;;18.60;10.43;;;;;;;25.79;42.94;101080.72;5005328;28;20034;-76
2021/08/04 09:29:04;;;;;;;16.45;9.05;;;;;;;25.99;41.81;101084.63;5009927;28;20040;-76
2021/08/04 09:31:51;;;;;;;16.13;10.55;;;;;;;26.10;41.51;101083.66;5014819;28;20037;-75
2021/08/04 09:34:30;;;;;;;15.15;9.43;;;;;;;26.47;39.50;101074.91;4996005;28;20502;-77
2021/08/04 09:37:14;;;;;;;15.07;8.35;;;;;;;26.06;40.47;101079.13;5002708;28;20602;-76
2021/08/04 09:39:44;;;;;;;;;;;;;;;25.53;42.15;101084.16;5001574;28;20176;-77
2021/08/04 09:42:12;;;;;;;14.40;8.07;;;;;;;24.93;42.67;101080.50;4996977;28;19913;-78
2021/08/04 09:44:52;;;;;;;11.15;7.30;;;;;;;24.58;44.41;101089.53;5011686;28;20502;-77
2021/08/04 09:47:18;;;;;;;11.32;7.88;;;;;;;24.90;42.08;101078.31;4993146;28;20034;-76
2021/08/04 09:49:54;;;;;;;18.55;9.38;;;;;;;25.37;41.30;101083.16;4993944;28;20025;-78
2021/08/04 09:52:20;;;;;;;13.60;8.95;;;;;;;25.61;40.39;101073.88;5009132;28;20053;-77
2021/08/04 09:54:45;;;;;;;18.65;10.32;;;;;;;25.33;42.91;101076.75;5005190;28;20042;-77
2021/08/04 09:57:11;;;;;;;13.10;8.55;;;;;;;25.13;42.76;101077.28;4998684;28;20060;-76
2021/08/04 09:59:37;;;;;;;13.52;9.60;;;;;;;25.06;42.71;101075.63;5007240;28;20057;-77
2021/08/04 10:02:04;;;;;;;13.50;8.95;;;;;;;25.19;43.09;101078.97;4988501;28;20717;-78
2021/08/04 10:04:31;;;;;;;18.27;12.02;;;;;;;25.06;44.63;101077.47;4995039;28;20032;-76
2021/08/04 10:07:09;;;;;;;16.23;11.73;;;;;;;25.31;43.03;101070.91;5000683;28;20018;-76
2021/08/04 10:09:36;;;;;;;16.10;11.60;;;;;;;25.66;43.21;101072.34;5015103;28;20037;-76
2021/08/04 10:12:03;;;;;;;18.05;11.35;;;;;;;25.31;44.04;101063.72;4996711;28;20053;-76
2021/08/04 10:14:30;;;;;;;12.93;8.68;;;;;;;25.54;43.06;101062.69;4991147;28;20122;-76
2021/08/04 10:16:56;;;;;;;15.48;10.25;;;;;;;25.52;41.63;101067.41;4992256;28;20036;-78
2021/08/04 10:19:24;;;;;;;13.60;10.27;;;;;;;24.95;42.65;101062.47;5004635;28;20044;-76
2021/08/04 10:21:52;;;;;;;14.40;9.10;;;;;;;24.61;45.10;101063.34;4986353;28;20030;-79
2021/08/04 10:24:18;;;;;;;16.92;10.02;;;;;;;24.59;44.50;101062.78;4986594;28;20026;-77
2021/08/04 10:26:43;;;;;;;15.20;9.00;;;;;;;24.94;44.44;101063.50;4983757;28;20025;-77
2021/08/04 10:29:10;;;;;;;16.38;10.70;;;;;;;25.23;43.09;101058.88;5010220;28;20049;-79
2021/08/04 10:31:37;;;;;;;15.20;11.50;;;;;;;25.47;43.02;101054.09;5005750;28;20659;-78
2021/08/04 10:34:04;;;;;;;18.60;11.10;;;;;;;25.23;44.24;101059.66;5005145;28;20045;-79
2021/08/04 10:36:39;;;;;;;19.00;11.98;;;;;;;25.06;43.03;101059.69;4993592;28;20061;-77
2021/08/04 10:39:10;;;;;;;21.27;12.50;;;;;;;24.36;42.83;101062.94;5007149;28;20037;-77
2021/08/04 10:41:36;;;;;;;15.52;11.70;;;;;;;24.13;45.11;101056.78;4985043;28;20057;-79
2021/08/04 10:44:05;;;;;;;17.48;12.07;;;;;;;23.74;46.07;101058.44;4985308;28;20058;-78
2021/08/04 10:46:30;;;;;;;16.25;10.82;;;;;;;23.59;47.03;101065.06;5001917;28;20037;-78
2021/08/04 10:49:05;;;;;;;18.27;13.05;;;;;;;23.47;47.17;101073.06;4988212;28;20101;-77
2021/08/04 10:51:43;;;;;;;16.63;13.52;;;;;;;23.43;45.88;101065.81;4995548;28;20034;-79
2021/08/04 10:54:17;;;;;;;16.52;11.85;;;;;;;23.32;46.46;101065.63;4989122;28;20089;-77
2021/08/04 10:56:43;;;;;;;22.83;12.15;;;;;;;23.36;47.55;101062.47;4991271;28;20484;-77
2021/08/04 10:59:09;;;;;;;13.93;10.85;;;;;;;23.17;47.81;101059.19;4990300;28;20122;-77
2021/08/04 11:01:44;;;;;;;17.10;11.60;;;;;;;23.21;47.19;101060.38;5007714;28;20029;-77
2021/08/04 11:04:14;;;;;;;21.65;13.40;;;;;;;23.41;47.12;101057.28;4991173;28;20038;-77
2021/08/04 11:07:07;;;;;;;16.35;12.48;;;;;;;23.99;45.56;101052.81;4988014;28;20045;-77
2021/08/04 11:09:43;;;;;;;18.50;12.40;;;;;;;24.15;45.55;101046.72;4987097;28;20446;-79
2021/08/04 11:12:11;;;;;;;16.42;10.30;;;;;;;24.59;44.74;101049.53;5008162;28;20068;-76
2021/08/04 11:14:43;;;;;;;13.77;8.73;;;;;;;24.85;42.93;101036.63;5002820;28;20030;-77
2021/08/04 11:17:17;;;;;;;15.60;12.38;;;;;;;24.42;42.92;101036.28;5014979;28;20030;-79
2021/08/04 11:22:40;;;;;;;16.27;10.73;;;;;;;24.45;43.97;101037.66;5006004;28;20037;-78